Time;durP1;ratioP1;P1;durP2;ratioP2;P2;SDS_P1;SDS_P2;PMS_P1;PMS_P2;Temp;Humidity;BMP_temperature;BMP_pressure;BME280_temperature;BME280_humidity;BME280_pressure;Samples;Min_cycle;Max_cycle;Signal;HPM_P1;HPM_P2
2023/09/08 00:00:59;;;;;;;5.05;4.28;;;;;;;;;;5030014;28;20504;-69
2023/09/08 00:03:26;;;;;;;7.25;4.50;;;;;;;;;;5029510;28;20430;-69
2023/09/08 00:05:53;;;;;;;7.05;6.20;;;;;;;;;;5028853;28;20549;-69
2023/09/08 00:08:21;;;;;;;6.57;4.97;;;;;;;;;;5028329;28;20430;-68
2023/09/08 00:10:48;;;;;;;5.15;4.00;;;;;;;;;;5030201;28;20508;-69
2023/09/08 00:13:19;;;;;;;4.95;4.47;;;;;;;;;;5033710;28;20457;-68
2023/09/08 00:15:53;;;;;;;4.80;4.40;;;;;;;;;;5033625;28;20442;-68
2023/09/08 00:18:20;;;;;;;32.80;30.33;;;;;;;;;;5041500;28;20779;-69
2023/09/08 00:20:47;;;;;;;6.18;4.60;;;;;;;;;;5035547;28;20512;-69
2023/09/08 00:23:15;;;;;;;6.28;4.78;;;;;;;;;;5036609;28;20433;-68
2023/09/08 00:25:44;;;;;;;5.93;4.60;;;;;;;;;;5033026;28;20438;-69
2023/09/08 00:28:12;;;;;;;6.43;4.72;;;;;;;;;;5033770;28;20438;-68
2023/09/08 00:30:39;;;;;;;6.57;4.32;;;;;;;;;;5027404;28;20464;-68
2023/09/08 00:33:08;;;;;;;5.00;4.50;;;;;;;;;;5033281;28;20453;-69
2023/09/08 00:35:36;;;;;;;4.35;3.95;;;;;;;;;;5029870;28;20771;-69
2023/09/08 00:38:03;;;;;;;5.25;4.75;;;;;;;;;;5039278;28;21126;-68
2023/09/08 00:40:30;;;;;;;47.13;43.20;;;;;;;;;;5024111;28;20533;-68
2023/09/08 00:42:58;;;;;;;342.30;309.73;;;;;;;;;;5031492;28;20433;-68
2023/09/08 00:45:27;;;;;;;535.72;487.88;;;;;;;;;;5014580;28;20463;-68
2023/09/08 00:47:54;;;;;;;744.17;667.50;;;;;;;;;;5054346;28;21255;-69
2023/09/08 00:50:24;;;;;;;812.53;665.50;;;;;;;;;;5021018;28;20861;-68
2023/09/08 00:52:51;;;;;;;812.10;667.80;;;;;;;;;;5026736;28;20508;-70
2023/09/08 00:55:21;;;;;;;912.38;674.20;;;;;;;;;;5027828;28;20488;-68
2023/09/08 00:57:49;;;;;;;904.55;670.10;;;;;;;;;;5024991;28;20514;-68
2023/09/08 01:00:16;;;;;;;906.00;667.85;;;;;;;;;;5035397;28;20433;-67
2023/09/08 01:02:44;;;;;;;888.20;632.55;;;;;;;;;;5023914;28;20441;-69
2023/09/08 01:05:14;;;;;;;877.92;625.67;;;;;;;;;;5027860;28;20435;-68
2023/09/08 01:07:41;;;;;;;883.28;638.65;;;;;;;;;;5028238;28;20437;-68
2023/09/08 01:10:09;;;;;;;899.88;645.10;;;;;;;;;;5029829;28;20453;-68
2023/09/08 01:12:36;;;;;;;874.15;630.75;;;;;;;;;;5044440;28;20433;-68
2023/09/08 01:15:06;;;;;;;870.28;603.08;;;;;;;;;;5034151;28;20854;-68
2023/09/08 01:17:36;;;;;;;876.90;643.03;;;;;;;;;;5022233;28;20434;-68
2023/09/08 01:20:22;;;;;;;851.67;571.30;;;;;;;;;;5028017;28;20457;-68
2023/09/08 01:23:04;;;;;;;878.35;648.40;;;;;;;;;;5025127;28;20436;-68
2023/09/08 01:25:32;;;;;;;882.47;653.93;;;;;;;;;;5026390;28;20449;-69
2023/09/08 01:28:01;;;;;;;856.20;600.10;;;;;;;;;;5023951;28;20441;-68
2023/09/08 01:30:32;;;;;;;850.88;588.30;;;;;;;;;;5031407;28;20432;-69
2023/09/08 01:33:00;;;;;;;845.50;589.28;;;;;;;;;;5029708;28;20425;-69
2023/09/08 01:35:27;;;;;;;842.95;588.80;;;;;;;;;;5028642;28;20861;-68
2023/09/08 01:37:54;;;;;;;909.47;642.97;;;;;;;;;;5048781;28;20596;-69
2023/09/08 01:40:22;;;;;;;897.37;635.40;;;;;;;;;;5034444;28;20508;-68
2023/09/08 01:42:49;;;;;;;890.97;632.53;;;;;;;;;;5029295;28;20812;-69
2023/09/08 01:45:16;;;;;;;884.38;631.92;;;;;;;;;;5036191;28;20457;-69
2023/09/08 01:47:43;;;;;;;872.00;609.63;;;;;;;;;;5033030;28;20961;-68
2023/09/08 01:50:11;;;;;;;908.50;643.17;;;;;;;;;;5031764;28;20427;-69
2023/09/08 01:52:38;;;;;;;890.78;653.58;;;;;;;;;;5032414;28;20514;-69
2023/09/08 01:55:07;;;;;;;895.53;659.72;;;;;;;;;;5033130;28;20901;-69
2023/09/08 01:57:34;;;;;;;892.60;644.97;;;;;;;;;;5041691;28;20431;-69
2023/09/08 02:00:01;;;;;;;872.60;600.97;;;;;;;;;;5032291;28;20479;-69
2023/09/08 02:02:29;;;;;;;877.58;639.60;;;;;;;;;;5041722;28;20432;-69
2023/09/08 02:04:56;;;;;;;878.00;655.20;;;;;;;;;;5036500;28;20547;-69
2023/09/08 02:07:23;;;;;;;865.67;617.28;;;;;;;;;;5038271;28;20455;-69
2023/09/08 02:09:53;;;;;;;859.10;594.93;;;;;;;;;;5026095;28;20435;-69
2023/09/08 02:12:21;;;;;;;850.93;584.17;;;;;;;;;;5034671;28;20431;-69
2023/09/08 02:14:48;;;;;;;862.08;592.20;;;;;;;;;;5029698;28;20470;-69
2023/09/08 02:17:15;;;;;;;861.00;599.88;;;;;;;;;;5034376;28;20452;-69
2023/09/08 02:19:43;;;;;;;856.10;596.77;;;;;;;;;;5034463;28;20992;-69
2023/09/08 02:22:11;;;;;;;858.38;599.75;;;;;;;;;;5032442;28;20525;-69
2023/09/08 02:24:38;;;;;;;861.88;585.20;;;;;;;;;;5034857;28;20438;-68
2023/09/08 02:27:05;;;;;;;872.30;604.28;;;;;;;;;;5033821;28;20433;-69
2023/09/08 02:29:32;;;;;;;873.20;598.40;;;;;;;;;;5031157;28;20427;-69
2023/09/08 02:31:59;;;;;;;857.45;583.40;;;;;;;;;;5033076;28;20431;-68
2023/09/08 02:34:30;;;;;;;840.53;581.25;;;;;;;;;;5035209;28;20489;-69
2023/09/08 02:37:03;;;;;;;850.43;576.77;;;;;;;;;;5026458;28;20445;-68
2023/09/08 02:39:33;;;;;;;851.42;587.35;;;;;;;;;;5026445;28;20441;-68
2023/09/08 02:42:00;;;;;;;858.55;628.60;;;;;;;;;;5034441;28;20435;-69
2023/09/08 02:44:27;;;;;;;883.30;639.75;;;;;;;;;;5033223;28;20510;-69
2023/09/08 02:46:57;;;;;;;882.30;603.92;;;;;;;;;;5037881;28;20472;-69
2023/09/08 02:49:24;;;;;;;882.95;628.40;;;;;;;;;;5036768;28;20435;-68
2023/09/08 02:51:54;;;;;;;859.17;650.08;;;;;;;;;;5025421;28;20520;-69
2023/09/08 02:54:21;;;;;;;703.97;630.92;;;;;;;;;;5035344;28;20538;-68
2023/09/08 02:56:48;;;;;;;884.40;652.47;;;;;;;;;;5030053;28;20433;-69
2023/09/08 02:59:16;;;;;;;877.15;652.08;;;;;;;;;;5026109;28;20520;-69
2023/09/08 03:01:46;;;;;;;857.90;652.13;;;;;;;;;;5031888;28;20427;-69
2023/09/08 03:04:13;;;;;;;882.33;654.05;;;;;;;;;;5033028;28;20433;-68
2023/09/08 03:06:41;;;;;;;847.43;653.83;;;;;;;;;;5036938;28;20497;-68
2023/09/08 03:09:08;;;;;;;891.03;658.43;;;;;;;;;;5026554;28;20927;-68
2023/09/08 03:11:37;;;;;;;888.53;660.65;;;;;;;;;;5021797;28;21204;-68
2023/09/08 03:14:04;;;;;;;883.13;657.83;;;;;;;;;;5030707;28;20438;-68
2023/09/08 03:16:32;;;;;;;878.35;653.08;;;;;;;;;;5031374;28;20844;-71
2023/09/08 03:18:59;;;;;;;873.40;648.63;;;;;;;;;;5028476;28;20442;-68
2023/09/08 03:21:26;;;;;;;881.03;653.47;;;;;;;;;;5030480;28;20477;-69
2023/09/08 03:23:53;;;;;;;882.67;652.87;;;;;;;;;;5036391;28;20437;-69
2023/09/08 03:26:20;;;;;;;873.53;642.47;;;;;;;;;;5024823;28;20434;-69
2023/09/08 03:28:47;;;;;;;873.45;644.75;;;;;;;;;;5033855;28;20433;-69
2023/09/08 03:31:15;;;;;;;887.35;645.65;;;;;;;;;;5032956;28;20440;-69
2023/09/08 03:33:42;;;;;;;681.42;611.00;;;;;;;;;;5026156;28;20509;-68
2023/09/08 03:36:10;;;;;;;829.47;644.10;;;;;;;;;;5034629;28;20421;-69
2023/09/08 03:38:42;;;;;;;844.57;646.33;;;;;;;;;;5035169;28;20431;-69
2023/09/08 03:41:10;;;;;;;834.50;641.90;;;;;;;;;;5025738;28;20442;-68
2023/09/08 03:43:37;;;;;;;821.97;630.78;;;;;;;;;;5022105;28;20441;-69
2023/09/08 03:46:08;;;;;;;876.85;632.45;;;;;;;;;;5026785;28;20833;-68
2023/09/08 03:48:35;;;;;;;867.78;635.33;;;;;;;;;;5027807;28;20531;-68
2023/09/08 03:51:02;;;;;;;863.25;633.55;;;;;;;;;;5032645;28;20883;-68
2023/09/08 03:53:31;;;;;;;867.97;634.83;;;;;;;;;;5023942;28;20421;-68
2023/09/08 03:55:58;;;;;;;860.37;635.17;;;;;;;;;;5024275;28;20472;-68
2023/09/08 03:58:26;;;;;;;856.47;631.78;;;;;;;;;;5022143;28;21090;-69
2023/09/08 04:00:53;;;;;;;855.77;628.17;;;;;;;;;;5028946;28;20460;-68
2023/09/08 04:03:20;;;;;;;860.70;632.40;;;;;;;;;;5021885;28;20522;-69
2023/09/08 04:05:48;;;;;;;858.25;628.05;;;;;;;;;;5023523;28;20431;-69
2023/09/08 04:08:16;;;;;;;860.15;629.17;;;;;;;;;;5019112;28;20438;-68
2023/09/08 04:10:43;;;;;;;855.60;629.75;;;;;;;;;;5026366;28;20430;-68
2023/09/08 04:13:10;;;;;;;855.45;629.45;;;;;;;;;;5030125;28;20450;-69
2023/09/08 04:15:37;;;;;;;857.75;636.40;;;;;;;;;;5027890;28;21115;-68
2023/09/08 04:18:04;;;;;;;849.93;628.90;;;;;;;;;;5025407;28;20435;-68
2023/09/08 04:20:31;;;;;;;854.08;630.75;;;;;;;;;;5023100;28;20432;-69
2023/09/08 04:22:59;;;;;;;837.75;571.47;;;;;;;;;;5024669;28;20447;-69
2023/09/08 04:25:26;;;;;;;841.90;575.80;;;;;;;;;;5021665;28;20443;-68
2023/09/08 04:27:53;;;;;;;841.63;574.10;;;;;;;;;;5024349;28;20948;-69
2023/09/08 04:30:21;;;;;;;841.60;573.47;;;;;;;;;;5027754;28;20425;-68
2023/09/08 04:32:48;;;;;;;844.55;570.35;;;;;;;;;;5023071;28;20948;-69
2023/09/08 04:35:15;;;;;;;848.28;585.25;;;;;;;;;;5022524;28;20434;-68
2023/09/08 04:37:43;;;;;;;827.10;563.45;;;;;;;;;;5025050;28;20435;-69
2023/09/08 04:40:10;;;;;;;824.08;561.70;;;;;;;;;;5035703;28;20487;-68
2023/09/08 04:42:37;;;;;;;828.37;564.03;;;;;;;;;;5036552;28;20545;-68
2023/09/08 04:45:04;;;;;;;829.90;559.47;;;;;;;;;;5028938;28;20466;-69
2023/09/08 04:47:32;;;;;;;811.60;507.00;;;;;;;;;;5028801;28;20599;-69
2023/09/08 04:49:59;;;;;;;818.83;520.70;;;;;;;;;;5031677;28;20431;-68
2023/09/08 04:52:29;;;;;;;847.20;597.85;;;;;;;;;;5025507;28;20506;-69
2023/09/08 04:54:56;;;;;;;835.55;560.45;;;;;;;;;;5020269;28;20427;-68
2023/09/08 04:57:26;;;;;;;827.33;530.30;;;;;;;;;;5016511;28;20535;-69
2023/09/08 04:59:56;;;;;;;826.17;527.00;;;;;;;;;;5027596;28;20477;-68
2023/09/08 05:02:23;;;;;;;848.53;576.88;;;;;;;;;;5015920;28;20441;-68
2023/09/08 05:04:51;;;;;;;841.00;544.20;;;;;;;;;;5016387;28;20533;-68
2023/09/08 05:07:18;;;;;;;835.78;548.33;;;;;;;;;;5017491;28;20439;-68
2023/09/08 05:09:46;;;;;;;843.13;569.37;;;;;;;;;;5025498;28;21106;-68
2023/09/08 05:12:13;;;;;;;841.17;574.78;;;;;;;;;;5028373;28;20430;-68
2023/09/08 05:14:41;;;;;;;839.13;571.25;;;;;;;;;;5033797;28;20427;-69
2023/09/08 05:17:08;;;;;;;837.83;581.08;;;;;;;;;;5026790;28;20452;-69
2023/09/08 05:19:35;;;;;;;838.90;580.60;;;;;;;;;;5032777;28;20450;-68
2023/09/08 05:22:02;;;;;;;845.53;594.37;;;;;;;;;;5028585;28;20462;-68
2023/09/08 05:24:29;;;;;;;846.85;588.65;;;;;;;;;;5028677;28;20465;-69
2023/09/08 05:26:56;;;;;;;833.88;542.08;;;;;;;;;;5026075;28;20444;-68
2023/09/08 05:29:24;;;;;;;798.47;610.08;;;;;;;;;;5020624;28;20437;-68
2023/09/08 05:31:51;;;;;;;636.53;576.47;;;;;;;;;;5026158;28;20436;-69
2023/09/08 05:34:18;;;;;;;786.30;614.85;;;;;;;;;;5029484;28;20456;-67
2023/09/08 05:36:46;;;;;;;890.67;610.58;;;;;;;;;;5027326;28;20893;-67
2023/09/08 05:39:14;;;;;;;856.97;599.10;;;;;;;;;;5030610;28;20429;-67
2023/09/08 05:41:42;;;;;;;893.75;602.53;;;;;;;;;;5026602;28;20905;-67
2023/09/08 05:44:09;;;;;;;858.92;621.60;;;;;;;;;;5031111;28;20437;-67
2023/09/08 05:46:36;;;;;;;874.70;620.63;;;;;;;;;;5030898;28;20559;-67
2023/09/08 05:49:04;;;;;;;805.58;606.28;;;;;;;;;;5027230;28;20532;-67
2023/09/08 05:51:34;;;;;;;405.42;364.70;;;;;;;;;;5028302;28;20854;-67
2023/09/08 05:54:01;;;;;;;164.88;149.20;;;;;;;;;;5026167;28;20783;-67
2023/09/08 05:56:31;;;;;;;75.50;69.63;;;;;;;;;;5029451;28;20514;-68
2023/09/08 05:59:01;;;;;;;15.73;14.45;;;;;;;;;;5014317;28;20916;-67
2023/09/08 06:01:34;;;;;;;4.82;3.90;;;;;;;;;;5031372;28;20429;-67
2023/09/08 06:04:01;;;;;;;5.37;4.40;;;;;;;;;;5025439;28;22778;-67
2023/09/08 06:06:29;;;;;;;95.60;87.20;;;;;;;;;;5032126;28;21162;-67
2023/09/08 06:08:58;;;;;;;346.55;315.23;;;;;;;;;;5024142;28;20485;-67
2023/09/08 06:11:28;;;;;;;5.68;5.18;;;;;;;;;;5031238;28;20518;-67
2023/09/08 06:13:58;;;;;;;7.63;6.93;;;;;;;;;;5029150;28;20438;-67
2023/09/08 06:16:26;;;;;;;4.90;3.80;;;;;;;;;;5022924;28;20924;-67
2023/09/08 06:18:54;;;;;;;3.97;3.53;;;;;;;;;;5016736;28;20519;-67
2023/09/08 06:21:21;;;;;;;3.83;3.53;;;;;;;;;;5027775;28;20434;-68
2023/09/08 06:23:49;;;;;;;9.83;9.13;;;;;;;;;;5029311;28;20439;-67
2023/09/08 06:26:16;;;;;;;6.22;3.40;;;;;;;;;;5027002;28;20553;-67
2023/09/08 06:28:44;;;;;;;4.57;3.55;;;;;;;;;;5032312;28;20516;-68
2023/09/08 06:31:11;;;;;;;4.18;3.78;;;;;;;;;;5022389;28;20522;-67
2023/09/08 06:33:38;;;;;;;3.90;3.35;;;;;;;;;;5023555;28;20453;-67
2023/09/08 06:36:06;;;;;;;4.03;3.38;;;;;;;;;;5035345;28;20431;-67
2023/09/08 06:38:34;;;;;;;4.75;3.60;;;;;;;;;;5031091;28;21206;-67
2023/09/08 06:41:09;;;;;;;6.40;3.70;;;;;;;;;;5022805;28;20438;-68
2023/09/08 06:43:37;;;;;;;3.75;3.38;;;;;;;;;;5007763;28;20467;-67
2023/09/08 06:46:04;;;;;;;3.78;3.47;;;;;;;;;;5029678;28;21084;-67
2023/09/08 06:48:31;;;;;;;3.90;3.60;;;;;;;;;;5024547;28;20965;-67
2023/09/08 06:50:59;;;;;;;4.53;3.63;;;;;;;;;;5025535;28;20484;-67
2023/09/08 06:53:26;;;;;;;59.75;54.90;;;;;;;;;;5032549;28;20880;-67
2023/09/08 06:55:55;;;;;;;45.00;41.78;;;;;;;;;;5032708;28;20430;-67
2023/09/08 06:58:22;;;;;;;635.05;579.70;;;;;;;;;;5024122;28;20427;-67
2023/09/08 07:00:54;;;;;;;1106.35;988.03;;;;;;;;;;5026636;28;20432;-67
2023/09/08 07:03:22;;;;;;;1015.42;913.72;;;;;;;;;;5027979;28;20443;-67
2023/09/08 07:05:51;;;;;;;840.25;770.28;;;;;;;;;;5023932;28;20435;-67
2023/09/08 07:08:18;;;;;;;967.75;885.85;;;;;;;;;;5044285;28;20471;-68
2023/09/08 07:10:45;;;;;;;1111.75;992.22;;;;;;;;;;5034372;28;20426;-68
2023/09/08 07:13:12;;;;;;;1051.45;938.97;;;;;;;;;;5030918;28;20887;-67
2023/09/08 07:15:39;;;;;;;1036.75;904.67;;;;;;;;;;5032954;28;20462;-67
2023/09/08 07:18:09;;;;;;;1038.18;903.78;;;;;;;;;;5031855;28;20548;-67
2023/09/08 07:20:37;;;;;;;1037.97;911.20;;;;;;;;;;5025481;28;20434;-68
2023/09/08 07:23:04;;;;;;;1026.45;908.78;;;;;;;;;;5023769;28;20514;-67
2023/09/08 07:25:31;;;;;;;1024.75;922.38;;;;;;;;;;5026473;28;20422;-68
2023/09/08 07:27:58;;;;;;;1060.50;947.45;;;;;;;;;;5022940;28;20516;-68
2023/09/08 07:30:26;;;;;;;1079.22;962.17;;;;;;;;;;5038895;28;20905;-68
2023/09/08 07:32:53;;;;;;;1045.35;930.85;;;;;;;;;;5022317;28;20493;-68
2023/09/08 07:35:20;;;;;;;1064.82;947.35;;;;;;;;;;5026154;28;20429;-69
2023/09/08 07:37:47;;;;;;;1028.85;913.28;;;;;;;;;;5020926;28;21232;-68
2023/09/08 07:40:15;;;;;;;1041.55;914.10;;;;;;;;;;5036327;28;20433;-68
2023/09/08 07:42:42;;;;;;;1058.85;943.97;;;;;;;;;;5057006;28;20518;-68
2023/09/08 07:45:14;;;;;;;1059.28;944.17;;;;;;;;;;5027957;28;20435;-68
2023/09/08 07:47:43;;;;;;;1039.78;925.35;;;;;;;;;;5023942;28;20440;-68
2023/09/08 07:50:21;;;;;;;1010.00;898.17;;;;;;;;;;5027407;28;20442;-68
2023/09/08 07:52:49;;;;;;;983.95;872.97;;;;;;;;;;5022851;28;20438;-68
2023/09/08 07:55:17;;;;;;;1003.08;886.45;;;;;;;;;;5030235;28;20564;-68
2023/09/08 07:57:45;;;;;;;1040.35;926.08;;;;;;;;;;5021348;28;20422;-68
2023/09/08 08:00:13;;;;;;;1070.90;956.17;;;;;;;;;;5024221;28;21258;-68
2023/09/08 08:02:42;;;;;;;1044.25;931.08;;;;;;;;;;5031708;28;20435;-68
2023/09/08 08:05:10;;;;;;;1081.10;964.95;;;;;;;;;;5022289;28;20847;-68
2023/09/08 08:07:38;;;;;;;1056.93;943.65;;;;;;;;;;5016571;28;20444;-67
2023/09/08 08:10:06;;;;;;;1096.30;980.80;;;;;;;;;;5025836;28;20961;-69
2023/09/08 08:12:33;;;;;;;1087.88;970.97;;;;;;;;;;5027046;28;20438;-68
2023/09/08 08:15:02;;;;;;;1051.63;936.20;;;;;;;;;;5030437;28;20438;-68
2023/09/08 08:17:30;;;;;;;1035.38;920.53;;;;;;;;;;5025143;28;20447;-68
2023/09/08 08:20:06;;;;;;;1032.07;917.45;;;;;;;;;;5023181;28;20528;-68
2023/09/08 08:22:34;;;;;;;1028.32;904.50;;;;;;;;;;5019823;28;20989;-68
2023/09/08 08:25:01;;;;;;;1036.57;921.40;;;;;;;;;;5028013;28;20435;-68
2023/09/08 08:27:28;;;;;;;887.90;812.58;;;;;;;;;;5023071;28;20430;-70
2023/09/08 08:29:57;;;;;;;1041.30;926.28;;;;;;;;;;5029527;28;20439;-67
2023/09/08 08:32:27;;;;;;;8.20;7.63;;;;;;;;;;5027799;28;20454;-67
2023/09/08 08:34:57;;;;;;;3.28;2.90;;;;;;;;;;5034708;28;21116;-68
2023/09/08 08:37:24;;;;;;;3.35;3.15;;;;;;;;;;5022565;28;20429;-68
2023/09/08 08:39:51;;;;;;;3.50;2.92;;;;;;;;;;5026810;28;20504;-68
2023/09/08 08:42:24;;;;;;;3.33;3.03;;;;;;;;;;5030469;28;20432;-68
2023/09/08 08:44:51;;;;;;;6.32;3.25;;;;;;;;;;5041345;28;20433;-68
2023/09/08 08:47:19;;;;;;;3.30;3.10;;;;;;;;;;5030500;28;20435;-68
2023/09/08 08:49:48;;;;;;;3.53;3.23;;;;;;;;;;5027285;28;20431;-68
2023/09/08 08:52:17;;;;;;;4.15;3.05;;;;;;;;;;5037415;28;20457;-69
2023/09/08 08:54:48;;;;;;;3.50;3.20;;;;;;;;;;5027173;28;20471;-68
2023/09/08 08:57:18;;;;;;;4.03;3.33;;;;;;;;;;5032858;28;20816;-67
2023/09/08 08:59:50;;;;;;;3.65;3.35;;;;;;;;;;5034161;28;21273;-68
2023/09/08 09:02:18;;;;;;;3.13;2.92;;;;;;;;;;5053210;28;20516;-68
2023/09/08 09:04:47;;;;;;;3.47;3.28;;;;;;;;;;5035931;28;20506;-68
2023/09/08 09:07:15;;;;;;;3.83;3.42;;;;;;;;;;5051541;28;20435;-69
2023/09/08 09:09:42;;;;;;;3.30;2.75;;;;;;;;;;5033014;28;20458;-68
2023/09/08 09:12:09;;;;;;;6.70;3.40;;;;;;;;;;5030811;28;20431;-68
2023/09/08 09:14:45;;;;;;;4.20;3.35;;;;;;;;;;5038856;28;20979;-68
2023/09/08 09:17:16;;;;;;;4.97;3.33;;;;;;;;;;5031281;28;20526;-69
2023/09/08 09:19:43;;;;;;;4.67;3.00;;;;;;;;;;5039177;28;20460;-69
2023/09/08 09:22:11;;;;;;;3.50;3.20;;;;;;;;;;5023105;28;21129;-69
2023/09/08 09:24:43;;;;;;;345.92;316.17;;;;;;;;;;5025890;28;20436;-70
2023/09/08 09:27:11;;;;;;;1190.33;999.90;;;;;;;;;;5027528;28;20565;-68
2023/09/08 09:29:46;;;;;;;1250.57;999.90;;;;;;;;;;5031872;28;20889;-68
2023/09/08 09:32:14;;;;;;;1254.97;999.90;;;;;;;;;;5024400;28;20432;-71
2023/09/08 09:34:48;;;;;;;1263.47;999.90;;;;;;;;;;5026781;28;20454;-69
2023/09/08 09:37:17;;;;;;;1293.20;999.90;;;;;;;;;;5026224;28;20449;-68
2023/09/08 09:39:48;;;;;;;1230.15;999.90;;;;;;;;;;5042020;28;20511;-69
2023/09/08 09:42:16;;;;;;;1275.57;999.90;;;;;;;;;;5027339;28;20442;-68
2023/09/08 09:44:43;;;;;;;1248.55;999.90;;;;;;;;;;5027051;28;22131;-69
2023/09/08 09:47:11;;;;;;;145.55;134.25;;;;;;;;;;5026936;28;20481;-71
2023/09/08 09:49:48;;;;;;;9.90;9.20;;;;;;;;;;5058572;28;20526;-68
2023/09/08 09:52:22;;;;;;;265.38;243.25;;;;;;;;;;5026802;28;20901;-69
2023/09/08 09:54:54;;;;;;;136.35;124.90;;;;;;;;;;5027279;28;20894;-68
2023/09/08 09:57:22;;;;;;;1243.80;999.90;;;;;;;;;;5022423;28;20877;-69
2023/09/08 09:59:50;;;;;;;1272.20;999.90;;;;;;;;;;5028831;28;20437;-70
2023/09/08 10:02:21;;;;;;;1240.27;999.90;;;;;;;;;;5022352;28;20447;-70
2023/09/08 10:04:50;;;;;;;1230.78;999.90;;;;;;;;;;5027769;28;20760;-70
2023/09/08 10:07:19;;;;;;;1211.47;999.90;;;;;;;;;;5029593;28;20524;-71
2023/09/08 10:09:47;;;;;;;1081.38;967.20;;;;;;;;;;5029597;28;20459;-71
2023/09/08 10:12:16;;;;;;;1096.55;982.22;;;;;;;;;;5021484;28;20437;-71
2023/09/08 10:14:52;;;;;;;1062.70;949.63;;;;;;;;;;5035574;28;20803;-71
2023/09/08 10:17:20;;;;;;;1097.90;983.30;;;;;;;;;;5041239;28;20538;-70
2023/09/08 10:19:51;;;;;;;1134.78;999.90;;;;;;;;;;5023925;28;20434;-77
2023/09/08 10:22:21;;;;;;;1059.57;947.33;;;;;;;;;;5016450;28;20521;-71
2023/09/08 10:24:49;;;;;;;1040.40;928.30;;;;;;;;;;5023566;28;20464;-71
2023/09/08 10:27:21;;;;;;;1094.95;979.92;;;;;;;;;;5016723;28;20863;-71
2023/09/08 10:29:52;;;;;;;1126.55;999.90;;;;;;;;;;5025010;28;20450;-71
2023/09/08 10:32:20;;;;;;;1086.30;972.38;;;;;;;;;;5028372;28;20435;-70
2023/09/08 10:34:48;;;;;;;1067.43;953.88;;;;;;;;;;5041927;28;21297;-70
2023/09/08 10:37:22;;;;;;;1101.37;985.40;;;;;;;;;;5028399;28;20873;-71
2023/09/08 10:39:49;;;;;;;1114.90;999.13;;;;;;;;;;5025209;28;20956;-71
2023/09/08 10:42:17;;;;;;;1107.35;993.40;;;;;;;;;;5021870;28;20514;-71
2023/09/08 10:44:44;;;;;;;1099.22;984.67;;;;;;;;;;5026326;28;20441;-71
2023/09/08 10:47:11;;;;;;;1131.75;999.90;;;;;;;;;;5024916;28;20441;-71
2023/09/08 10:49:39;;;;;;;1115.90;999.75;;;;;;;;;;5016952;28;20470;-72
2023/09/08 10:52:09;;;;;;;1127.10;999.90;;;;;;;;;;5022933;28;20533;-71
2023/09/08 10:54:43;;;;;;;1158.20;999.90;;;;;;;;;;5025110;28;21185;-70
2023/09/08 10:57:14;;;;;;;1122.55;999.90;;;;;;;;;;5023553;28;20469;-71
2023/09/08 10:59:55;;;;;;;1128.90;999.90;;;;;;;;;;5021757;28;20443;-69
2023/09/08 11:02:36;;;;;;;1102.03;988.38;;;;;;;;;;5040882;28;20526;-71
2023/09/08 11:05:04;;;;;;;1125.55;999.90;;;;;;;;;;5023985;28;20447;-71
2023/09/08 11:07:35;;;;;;;1123.57;999.90;;;;;;;;;;5025743;28;20450;-72
2023/09/08 11:10:02;;;;;;;1119.40;999.90;;;;;;;;;;5024347;28;20494;-73
2023/09/08 11:12:30;;;;;;;1143.55;999.90;;;;;;;;;;5024557;28;20484;-71
2023/09/08 11:14:58;;;;;;;1131.00;999.90;;;;;;;;;;5022127;28;21110;-72
2023/09/08 11:17:26;;;;;;;1138.28;999.90;;;;;;;;;;5022759;28;20490;-70
2023/09/08 11:19:53;;;;;;;1141.78;999.90;;;;;;;;;;5025825;28;20434;-72
2023/09/08 11:22:23;;;;;;;1085.10;970.92;;;;;;;;;;5042078;28;20434;-74
2023/09/08 11:24:51;;;;;;;1070.32;956.80;;;;;;;;;;5019339;28;20521;-72
2023/09/08 11:27:19;;;;;;;1076.05;962.58;;;;;;;;;;5024626;28;20431;-76
2023/09/08 11:29:46;;;;;;;1082.72;968.47;;;;;;;;;;5023759;28;20546;-72
2023/09/08 11:32:13;;;;;;;1064.45;951.42;;;;;;;;;;5026986;28;20429;-71
2023/09/08 11:34:41;;;;;;;1097.03;981.72;;;;;;;;;;5026180;28;20427;-72
2023/09/08 11:37:16;;;;;;;1097.25;982.55;;;;;;;;;;5021411;28;20482;-74
2023/09/08 11:39:46;;;;;;;1130.32;999.90;;;;;;;;;;5023546;28;20442;-73
2023/09/08 11:42:14;;;;;;;1143.72;999.90;;;;;;;;;;5025619;28;20439;-72
2023/09/08 11:44:42;;;;;;;1153.53;999.90;;;;;;;;;;5026154;28;20546;-72
2023/09/08 11:47:11;;;;;;;1140.90;999.90;;;;;;;;;;5029083;28;20437;-72
2023/09/08 11:49:40;;;;;;;1140.43;999.90;;;;;;;;;;5031894;28;20504;-72
2023/09/08 11:52:07;;;;;;;1140.45;999.90;;;;;;;;;;5040750;28;20431;-74
2023/09/08 11:54:35;;;;;;;1125.18;999.90;;;;;;;;;;5024743;28;20490;-73
2023/09/08 11:57:07;;;;;;;1116.75;999.90;;;;;;;;;;5040276;28;20459;-72
2023/09/08 11:59:35;;;;;;;1155.47;999.90;;;;;;;;;;5028591;28;20428;-73
2023/09/08 12:02:02;;;;;;;1141.50;999.90;;;;;;;;;;5024910;28;20442;-73
2023/09/08 12:04:36;;;;;;;1149.07;999.90;;;;;;;;;;5023132;28;21099;-73
2023/09/08 12:07:15;;;;;;;1129.32;999.90;;;;;;;;;;5024000;28;20496;-74
2023/09/08 12:09:42;;;;;;;1131.40;999.90;;;;;;;;;;5019807;28;20438;-73
2023/09/08 12:12:12;;;;;;;1171.70;999.90;;;;;;;;;;5025048;28;20437;-73
2023/09/08 12:14:43;;;;;;;1044.15;949.72;;;;;;;;;;5022884;28;20936;-72
2023/09/08 12:17:17;;;;;;;161.40;148.43;;;;;;;;;;5022678;28;20427;-73
2023/09/08 12:19:45;;;;;;;3.13;2.80;;;;;;;;;;5015906;28;20439;-72
2023/09/08 12:22:17;;;;;;;84.03;76.00;;;;;;;;;;5027561;28;20971;-72
2023/09/08 12:25:01;;;;;;;4.85;3.00;;;;;;;;;;5032618;28;20439;-72
2023/09/08 12:27:28;;;;;;;242.38;218.57;;;;;;;;;;5035882;28;20985;-73
2023/09/08 12:29:56;;;;;;;4.50;4.20;;;;;;;;;;5026945;28;20439;-74
2023/09/08 12:32:24;;;;;;;38.08;34.90;;;;;;;;;;5039306;28;20425;-72
2023/09/08 12:34:52;;;;;;;8.30;7.60;;;;;;;;;;5027991;28;20422;-72
2023/09/08 12:37:29;;;;;;;3.00;2.80;;;;;;;;;;5023987;28;20434;-72
2023/09/08 12:39:57;;;;;;;3.40;3.20;;;;;;;;;;5035953;28;20467;-72
2023/09/08 12:42:29;;;;;;;3.90;3.00;;;;;;;;;;5039907;28;20854;-72
2023/09/08 12:44:58;;;;;;;27.20;19.83;;;;;;;;;;5029102;28;20434;-72
2023/09/08 12:47:25;;;;;;;3.67;3.35;;;;;;;;;;5024564;28;20434;-71
2023/09/08 12:49:55;;;;;;;3.20;2.90;;;;;;;;;;5026763;28;20426;-73
2023/09/08 12:52:22;;;;;;;3.15;2.92;;;;;;;;;;5032384;28;20481;-72
2023/09/08 12:54:52;;;;;;;3.22;2.92;;;;;;;;;;5030852;28;20905;-74
2023/09/08 12:57:20;;;;;;;3.28;3.08;;;;;;;;;;5027466;28;20916;-77
2023/09/08 12:59:52;;;;;;;3.47;3.20;;;;;;;;;;5026982;28;20442;-72
2023/09/08 13:02:21;;;;;;;3.33;2.97;;;;;;;;;;5026603;28;20442;-74
2023/09/08 13:04:49;;;;;;;3.40;3.08;;;;;;;;;;5020935;28;21230;-72
2023/09/08 13:07:16;;;;;;;3.03;2.83;;;;;;;;;;5023962;28;20441;-74
2023/09/08 13:09:44;;;;;;;2.97;2.70;;;;;;;;;;5022318;28;20518;-74
2023/09/08 13:12:14;;;;;;;3.30;3.00;;;;;;;;;;5024528;28;20506;-73
2023/09/08 13:14:43;;;;;;;3.40;3.10;;;;;;;;;;5023006;28;20837;-73
2023/09/08 13:17:15;;;;;;;3.63;2.80;;;;;;;;;;5024605;28;20506;-71
2023/09/08 13:19:43;;;;;;;3.13;2.70;;;;;;;;;;5023661;28;20434;-72
2023/09/08 13:22:13;;;;;;;2.77;2.57;;;;;;;;;;5024422;28;20462;-72
2023/09/08 13:24:41;;;;;;;3.00;2.70;;;;;;;;;;5021394;28;20435;-72
2023/09/08 13:27:08;;;;;;;4.30;3.30;;;;;;;;;;5020835;28;21360;-73
2023/09/08 13:29:35;;;;;;;3.20;2.90;;;;;;;;;;5028148;28;20430;-71
2023/09/08 13:32:04;;;;;;;4.22;3.38;;;;;;;;;;5025287;28;20510;-72
2023/09/08 13:34:32;;;;;;;4.50;3.35;;;;;;;;;;5037652;28;20479;-72
2023/09/08 13:36:59;;;;;;;3.40;2.93;;;;;;;;;;5038560;28;20519;-73
2023/09/08 13:39:27;;;;;;;3.45;3.15;;;;;;;;;;5027926;28;20422;-73
2023/09/08 13:41:58;;;;;;;3.30;3.00;;;;;;;;;;5020833;28;20435;-72
2023/09/08 13:44:28;;;;;;;4.00;3.00;;;;;;;;;;5027255;28;20435;-72
2023/09/08 13:46:56;;;;;;;3.50;3.20;;;;;;;;;;5025793;28;20433;-73
2023/09/08 13:49:23;;;;;;;3.40;3.07;;;;;;;;;;5027925;28;20467;-72
2023/09/08 13:51:54;;;;;;;3.30;3.00;;;;;;;;;;5027338;28;20427;-72
2023/09/08 13:54:23;;;;;;;2.97;2.78;;;;;;;;;;5019403;28;20432;-73
2023/09/08 13:57:02;;;;;;;3.05;2.90;;;;;;;;;;5026667;28;20523;-72
2023/09/08 13:59:37;;;;;;;5.13;3.10;;;;;;;;;;5020450;28;20524;-73
2023/09/08 14:02:09;;;;;;;3.15;2.92;;;;;;;;;;5024962;28;20434;-73
2023/09/08 14:04:59;;;;;;;3.30;3.08;;;;;;;;;;5026577;28;20418;-73
2023/09/08 14:07:33;;;;;;;6.30;2.90;;;;;;;;;;5030353;28;20484;-73
2023/09/08 14:10:11;;;;;;;3.95;3.60;;;;;;;;;;5024957;28;20451;-77
2023/09/08 14:12:41;;;;;;;3.30;3.10;;;;;;;;;;5020578;28;21015;-74